This is the latest recevied weather packets stored in our database for station/object K4OAM-13. If no packets are shown the sender has not sent any weather packets the latest 10 day(s).
| Time | Temp. | Humidity | Pressure | Rain* | Wind** | Luminosity | Snow |
|---|---|---|---|---|---|---|---|
| 1778122559 | 5° C | 92% | 1017.2 hPa | - | - | - | - |
| 1778121959 | 5° C | 91% | 1017.1 hPa | - | - | - | - |
| 1778121359 | 5° C | 90% | 1016.9 hPa | - | - | - | - |
| 1778120759 | 5° C | 88% | 1017 hPa | - | - | - | - |
| 1778120159 | 5° C | 92% | 1016.5 hPa | - | - | - | - |
| 1778119559 | 5° C | 90% | 1016.6 hPa | - | - | - | - |
| 1778118960 | 5° C | 90% | 1016.4 hPa | - | - | - | - |
| 1778118359 | 5° C | 94% | 1016.1 hPa | - | - | - | - |
| 1778117758 | 5° C | 92% | 1016.1 hPa | - | - | - | - |
| 1778117159 | 5° C | 93% | 1015.9 hPa | - | - | - | - |
| 1778116559 | 5° C | 93% | 1015.8 hPa | - | - | - | - |
| 1778115959 | 5° C | 95% | 1015.6 hPa | - | - | - | - |
| 1778115359 | 5° C | 95% | 1015.4 hPa | - | - | - | - |
| 1778114759 | 5.56° C | 90% | 1015.3 hPa | - | - | - | - |
| 1778114159 | 5.56° C | 92% | 1015.1 hPa | - | - | - | - |
| 1778113559 | 5.56° C | 91% | 1014.8 hPa | - | - | - | - |
| 1778112959 | 6.11° C | 90% | 1014.4 hPa | - | - | - | - |
| 1778112359 | 6.11° C | 91% | 1014.6 hPa | - | - | - | - |
| 1778111759 | 6.11° C | 96% | 1014.3 hPa | - | - | - | - |
| 1778111159 | 6.11° C | 97% | 1013.9 hPa | - | - | - | - |
| 1778110559 | 6.11° C | 94% | 1013.8 hPa | - | - | - | - |
| 1778109959 | 6.11° C | 95% | 1013.5 hPa | - | - | - | - |
| 1778109358 | 6.11° C | 95% | 1013.4 hPa | - | - | - | - |
| 1778108759 | 6.11° C | 10% | - | - | - | - | - |
| 1778108159 | 6.11° C | 10% | - | - | - | - | - |
* Rain since midnight (hover to see other rain measurements)
** Current wind speed in m/s (hover to see current wind gust speed)